sensor_id;sensor_type;location;lat;lon;timestamp;P1;durP1;ratioP1;P2;durP2;ratioP2
81176;SDS011;70786;48.272;14.200;2023-08-06T00:00:20;2.65;;;2.33;;
81176;SDS011;70786;48.272;14.200;2023-08-06T00:02:47;3.53;;;2.72;;
81176;SDS011;70786;48.272;14.200;2023-08-06T00:05:14;3.85;;;2.50;;
81176;SDS011;70786;48.272;14.200;2023-08-06T00:07:47;3.60;;;2.53;;
81176;SDS011;70786;48.272;14.200;2023-08-06T00:10:13;3.47;;;3.00;;
81176;SDS011;70786;48.272;14.200;2023-08-06T00:12:39;3.42;;;2.58;;
81176;SDS011;70786;48.272;14.200;2023-08-06T00:15:05;2.97;;;2.28;;
81176;SDS011;70786;48.272;14.200;2023-08-06T00:17:33;3.53;;;2.50;;
81176;SDS011;70786;48.272;14.200;2023-08-06T00:20:00;3.78;;;3.10;;
81176;SDS011;70786;48.272;14.200;2023-08-06T00:22:33;8.55;;;2.90;;
81176;SDS011;70786;48.272;14.200;2023-08-06T00:25:00;3.88;;;2.80;;
81176;SDS011;70786;48.272;14.200;2023-08-06T00:27:26;4.03;;;2.53;;
81176;SDS011;70786;48.272;14.200;2023-08-06T00:29:52;4.57;;;3.03;;
81176;SDS011;70786;48.272;14.200;2023-08-06T00:32:18;3.38;;;2.70;;
81176;SDS011;70786;48.272;14.200;2023-08-06T00:34:44;5.88;;;3.08;;
81176;SDS011;70786;48.272;14.200;2023-08-06T00:37:10;4.28;;;2.72;;
81176;SDS011;70786;48.272;14.200;2023-08-06T00:39:36;3.75;;;2.78;;
81176;SDS011;70786;48.272;14.200;2023-08-06T00:42:02;3.90;;;2.55;;
81176;SDS011;70786;48.272;14.200;2023-08-06T00:44:29;3.40;;;2.50;;
81176;SDS011;70786;48.272;14.200;2023-08-06T00:46:55;3.35;;;2.58;;
81176;SDS011;70786;48.272;14.200;2023-08-06T00:49:21;3.60;;;2.58;;
81176;SDS011;70786;48.272;14.200;2023-08-06T00:51:47;3.30;;;2.63;;
81176;SDS011;70786;48.272;14.200;2023-08-06T00:54:13;3.10;;;2.40;;
81176;SDS011;70786;48.272;14.200;2023-08-06T00:56:39;3.17;;;2.42;;
81176;SDS011;70786;48.272;14.200;2023-08-06T00:59:07;4.63;;;2.55;;
81176;SDS011;70786;48.272;14.200;2023-08-06T01:01:35;4.10;;;2.50;;
81176;SDS011;70786;48.272;14.200;2023-08-06T01:04:01;3.45;;;2.33;;
81176;SDS011;70786;48.272;14.200;2023-08-06T01:06:35;3.10;;;2.42;;
81176;SDS011;70786;48.272;14.200;2023-08-06T01:09:07;2.70;;;2.00;;
81176;SDS011;70786;48.272;14.200;2023-08-06T01:11:51;2.58;;;2.08;;
81176;SDS011;70786;48.272;14.200;2023-08-06T01:14:48;2.58;;;1.92;;
81176;SDS011;70786;48.272;14.200;2023-08-06T01:17:23;2.00;;;1.55;;
81176;SDS011;70786;48.272;14.200;2023-08-06T01:19:52;2.60;;;2.00;;
81176;SDS011;70786;48.272;14.200;2023-08-06T01:22:18;2.65;;;1.88;;
81176;SDS011;70786;48.272;14.200;2023-08-06T01:24:47;3.17;;;2.42;;
81176;SDS011;70786;48.272;14.200;2023-08-06T01:27:17;2.85;;;2.30;;
81176;SDS011;70786;48.272;14.200;2023-08-06T01:32:30;2.17;;;1.85;;
81176;SDS011;70786;48.272;14.200;2023-08-06T01:34:59;3.17;;;2.13;;
81176;SDS011;70786;48.272;14.200;2023-08-06T01:37:27;3.03;;;2.50;;
81176;SDS011;70786;48.272;14.200;2023-08-06T01:39:53;3.83;;;2.55;;
81176;SDS011;70786;48.272;14.200;2023-08-06T01:42:19;2.75;;;2.28;;
81176;SDS011;70786;48.272;14.200;2023-08-06T01:44:45;4.30;;;2.63;;
81176;SDS011;70786;48.272;14.200;2023-08-06T01:47:11;3.22;;;2.63;;
81176;SDS011;70786;48.272;14.200;2023-08-06T01:49:37;3.95;;;2.95;;
81176;SDS011;70786;48.272;14.200;2023-08-06T01:52:03;5.25;;;2.78;;
81176;SDS011;70786;48.272;14.200;2023-08-06T01:54:29;3.20;;;2.50;;
81176;SDS011;70786;48.272;14.200;2023-08-06T01:56:55;2.80;;;2.30;;
81176;SDS011;70786;48.272;14.200;2023-08-06T01:59:24;3.05;;;2.47;;
81176;SDS011;70786;48.272;14.200;2023-08-06T02:01:50;6.88;;;2.70;;
81176;SDS011;70786;48.272;14.200;2023-08-06T02:04:22;4.13;;;2.97;;
81176;SDS011;70786;48.272;14.200;2023-08-06T02:06:48;4.35;;;2.80;;
81176;SDS011;70786;48.272;14.200;2023-08-06T02:09:14;4.97;;;2.90;;
81176;SDS011;70786;48.272;14.200;2023-08-06T02:11:43;5.28;;;3.03;;
81176;SDS011;70786;48.272;14.200;2023-08-06T02:14:09;6.10;;;3.92;;
81176;SDS011;70786;48.272;14.200;2023-08-06T02:16:35;6.43;;;3.35;;
81176;SDS011;70786;48.272;14.200;2023-08-06T02:19:01;6.97;;;3.60;;
81176;SDS011;70786;48.272;14.200;2023-08-06T02:21:32;3.85;;;2.80;;
81176;SDS011;70786;48.272;14.200;2023-08-06T02:23:59;3.85;;;2.90;;
81176;SDS011;70786;48.272;14.200;2023-08-06T02:26:30;3.70;;;2.63;;
81176;SDS011;70786;48.272;14.200;2023-08-06T02:28:57;3.75;;;2.90;;
81176;SDS011;70786;48.272;14.200;2023-08-06T02:31:25;4.65;;;2.75;;
81176;SDS011;70786;48.272;14.200;2023-08-06T02:33:54;4.13;;;2.38;;
81176;SDS011;70786;48.272;14.200;2023-08-06T02:36:23;4.18;;;2.55;;
81176;SDS011;70786;48.272;14.200;2023-08-06T02:38:55;3.67;;;2.72;;
81176;SDS011;70786;48.272;14.200;2023-08-06T02:41:24;3.05;;;2.35;;
81176;SDS011;70786;48.272;14.200;2023-08-06T02:43:54;2.92;;;2.35;;
81176;SDS011;70786;48.272;14.200;2023-08-06T02:46:21;4.53;;;2.45;;
81176;SDS011;70786;48.272;14.200;2023-08-06T02:48:52;3.08;;;2.13;;
81176;SDS011;70786;48.272;14.200;2023-08-06T02:51:19;3.35;;;2.67;;
81176;SDS011;70786;48.272;14.200;2023-08-06T02:53:45;4.07;;;3.00;;
81176;SDS011;70786;48.272;14.200;2023-08-06T02:58:42;2.85;;;2.20;;
81176;SDS011;70786;48.272;14.200;2023-08-06T03:01:09;3.97;;;2.90;;
81176;SDS011;70786;48.272;14.200;2023-08-06T03:03:40;3.35;;;2.55;;
81176;SDS011;70786;48.272;14.200;2023-08-06T03:06:07;3.95;;;2.72;;
81176;SDS011;70786;48.272;14.200;2023-08-06T03:08:33;3.00;;;2.15;;
81176;SDS011;70786;48.272;14.200;2023-08-06T03:11:03;5.72;;;2.17;;
81176;SDS011;70786;48.272;14.200;2023-08-06T03:13:29;3.85;;;2.80;;
81176;SDS011;70786;48.272;14.200;2023-08-06T03:15:56;4.53;;;2.75;;
81176;SDS011;70786;48.272;14.200;2023-08-06T03:18:25;4.20;;;2.88;;
81176;SDS011;70786;48.272;14.200;2023-08-06T03:20:54;4.47;;;3.03;;
81176;SDS011;70786;48.272;14.200;2023-08-06T03:23:23;3.85;;;2.80;;
81176;SDS011;70786;48.272;14.200;2023-08-06T03:25:50;3.90;;;2.97;;
81176;SDS011;70786;48.272;14.200;2023-08-06T03:28:19;5.85;;;3.30;;
81176;SDS011;70786;48.272;14.200;2023-08-06T03:30:48;5.65;;;3.08;;
81176;SDS011;70786;48.272;14.200;2023-08-06T03:33:27;4.55;;;3.15;;
81176;SDS011;70786;48.272;14.200;2023-08-06T03:35:59;3.53;;;2.72;;
81176;SDS011;70786;48.272;14.200;2023-08-06T03:38:28;3.72;;;2.85;;
81176;SDS011;70786;48.272;14.200;2023-08-06T03:40:57;4.13;;;2.63;;
81176;SDS011;70786;48.272;14.200;2023-08-06T03:43:24;6.00;;;3.33;;
81176;SDS011;70786;48.272;14.200;2023-08-06T03:45:50;4.50;;;3.10;;
81176;SDS011;70786;48.272;14.200;2023-08-06T03:48:16;4.00;;;3.13;;
81176;SDS011;70786;48.272;14.200;2023-08-06T03:50:43;4.43;;;2.88;;
81176;SDS011;70786;48.272;14.200;2023-08-06T03:53:15;5.85;;;3.33;;
81176;SDS011;70786;48.272;14.200;2023-08-06T03:55:47;5.38;;;3.33;;
81176;SDS011;70786;48.272;14.200;2023-08-06T03:58:16;6.07;;;3.80;;
81176;SDS011;70786;48.272;14.200;2023-08-06T04:00:45;6.28;;;3.88;;
81176;SDS011;70786;48.272;14.200;2023-08-06T04:03:16;4.60;;;3.25;;
81176;SDS011;70786;48.272;14.200;2023-08-06T04:05:48;4.97;;;3.00;;
81176;SDS011;70786;48.272;14.200;2023-08-06T04:08:17;4.20;;;2.88;;
81176;SDS011;70786;48.272;14.200;2023-08-06T04:10:49;3.92;;;2.78;;
81176;SDS011;70786;48.272;14.200;2023-08-06T04:13:19;3.15;;;2.10;;
81176;SDS011;70786;48.272;14.200;2023-08-06T04:15:46;3.03;;;2.13;;
81176;SDS011;70786;48.272;14.200;2023-08-06T04:18:13;1.90;;;1.30;;
81176;SDS011;70786;48.272;14.200;2023-08-06T04:20:43;1.90;;;1.40;;
81176;SDS011;70786;48.272;14.200;2023-08-06T04:25:37;2.55;;;1.30;;
81176;SDS011;70786;48.272;14.200;2023-08-06T04:28:04;1.95;;;1.38;;
81176;SDS011;70786;48.272;14.200;2023-08-06T04:30:33;1.20;;;1.00;;
81176;SDS011;70786;48.272;14.200;2023-08-06T04:33:00;1.35;;;1.15;;
81176;SDS011;70786;48.272;14.200;2023-08-06T04:35:27;3.88;;;1.45;;
81176;SDS011;70786;48.272;14.200;2023-08-06T04:37:53;1.77;;;1.02;;
81176;SDS011;70786;48.272;14.200;2023-08-06T04:40:20;1.85;;;1.33;;
81176;SDS011;70786;48.272;14.200;2023-08-06T04:42:46;1.90;;;1.27;;
81176;SDS011;70786;48.272;14.200;2023-08-06T04:45:13;2.58;;;1.27;;
81176;SDS011;70786;48.272;14.200;2023-08-06T04:47:39;2.42;;;1.23;;
81176;SDS011;70786;48.272;14.200;2023-08-06T04:50:08;2.25;;;1.27;;
81176;SDS011;70786;48.272;14.200;2023-08-06T04:52:37;1.80;;;1.40;;
81176;SDS011;70786;48.272;14.200;2023-08-06T04:55:11;1.48;;;1.30;;
81176;SDS011;70786;48.272;14.200;2023-08-06T04:57:40;1.48;;;1.23;;
81176;SDS011;70786;48.272;14.200;2023-08-06T05:00:12;3.65;;;1.50;;
81176;SDS011;70786;48.272;14.200;2023-08-06T05:02:41;1.95;;;1.33;;
81176;SDS011;70786;48.272;14.200;2023-08-06T05:05:08;1.88;;;1.42;;
81176;SDS011;70786;48.272;14.200;2023-08-06T05:07:38;2.45;;;1.63;;
81176;SDS011;70786;48.272;14.200;2023-08-06T05:10:06;4.18;;;1.70;;
81176;SDS011;70786;48.272;14.200;2023-08-06T05:12:33;2.67;;;1.70;;
81176;SDS011;70786;48.272;14.200;2023-08-06T05:15:00;2.60;;;1.77;;
81176;SDS011;70786;48.272;14.200;2023-08-06T05:17:32;1.95;;;1.42;;
81176;SDS011;70786;48.272;14.200;2023-08-06T05:19:59;3.28;;;1.65;;
81176;SDS011;70786;48.272;14.200;2023-08-06T05:22:26;2.80;;;1.92;;
81176;SDS011;70786;48.272;14.200;2023-08-06T05:24:55;2.78;;;1.60;;
81176;SDS011;70786;48.272;14.200;2023-08-06T05:27:21;4.43;;;2.10;;
81176;SDS011;70786;48.272;14.200;2023-08-06T05:29:48;3.90;;;1.80;;
81176;SDS011;70786;48.272;14.200;2023-08-06T05:32:14;2.45;;;1.92;;
81176;SDS011;70786;48.272;14.200;2023-08-06T05:34:44;3.13;;;2.10;;
81176;SDS011;70786;48.272;14.200;2023-08-06T05:37:11;2.75;;;1.70;;
81176;SDS011;70786;48.272;14.200;2023-08-06T05:39:40;2.58;;;1.48;;
81176;SDS011;70786;48.272;14.200;2023-08-06T05:42:12;3.15;;;1.65;;
81176;SDS011;70786;48.272;14.200;2023-08-06T05:44:41;2.22;;;1.55;;
81176;SDS011;70786;48.272;14.200;2023-08-06T05:47:12;3.55;;;1.85;;
81176;SDS011;70786;48.272;14.200;2023-08-06T05:49:44;3.13;;;1.98;;
81176;SDS011;70786;48.272;14.200;2023-08-06T05:52:11;3.45;;;1.70;;
81176;SDS011;70786;48.272;14.200;2023-08-06T05:54:38;3.97;;;2.10;;
81176;SDS011;70786;48.272;14.200;2023-08-06T05:57:06;3.75;;;1.90;;
81176;SDS011;70786;48.272;14.200;2023-08-06T05:59:33;4.57;;;2.35;;
81176;SDS011;70786;48.272;14.200;2023-08-06T06:01:59;2.75;;;2.20;;
81176;SDS011;70786;48.272;14.200;2023-08-06T06:04:26;3.70;;;1.90;;
81176;SDS011;70786;48.272;14.200;2023-08-06T06:06:53;3.47;;;2.13;;
81176;SDS011;70786;48.272;14.200;2023-08-06T06:09:19;3.20;;;2.17;;
81176;SDS011;70786;48.272;14.200;2023-08-06T06:11:46;2.05;;;1.67;;
81176;SDS011;70786;48.272;14.200;2023-08-06T06:14:18;3.40;;;1.88;;
81176;SDS011;70786;48.272;14.200;2023-08-06T06:16:47;3.03;;;2.00;;
81176;SDS011;70786;48.272;14.200;2023-08-06T06:19:14;3.78;;;2.05;;
81176;SDS011;70786;48.272;14.200;2023-08-06T06:21:43;2.80;;;1.77;;
81176;SDS011;70786;48.272;14.200;2023-08-06T06:24:10;2.75;;;2.20;;
81176;SDS011;70786;48.272;14.200;2023-08-06T06:26:36;3.63;;;2.28;;
81176;SDS011;70786;48.272;14.200;2023-08-06T06:29:03;3.20;;;2.10;;
81176;SDS011;70786;48.272;14.200;2023-08-06T06:31:30;3.00;;;2.10;;
81176;SDS011;70786;48.272;14.200;2023-08-06T06:33:56;3.53;;;2.25;;
81176;SDS011;70786;48.272;14.200;2023-08-06T06:36:23;3.10;;;2.00;;
81176;SDS011;70786;48.272;14.200;2023-08-06T06:38:49;3.13;;;2.30;;
81176;SDS011;70786;48.272;14.200;2023-08-06T06:41:19;5.65;;;3.03;;
81176;SDS011;70786;48.272;14.200;2023-08-06T06:43:48;2.53;;;2.10;;
81176;SDS011;70786;48.272;14.200;2023-08-06T06:46:14;3.70;;;2.22;;
81176;SDS011;70786;48.272;14.200;2023-08-06T06:48:41;2.70;;;1.80;;
81176;SDS011;70786;48.272;14.200;2023-08-06T06:51:07;2.67;;;1.98;;
81176;SDS011;70786;48.272;14.200;2023-08-06T06:53:34;3.20;;;2.10;;
81176;SDS011;70786;48.272;14.200;2023-08-06T06:56:02;2.63;;;2.05;;
81176;SDS011;70786;48.272;14.200;2023-08-06T06:58:30;3.05;;;2.13;;
81176;SDS011;70786;48.272;14.200;2023-08-06T07:00:57;2.95;;;2.10;;
81176;SDS011;70786;48.272;14.200;2023-08-06T07:03:24;3.13;;;2.15;;
81176;SDS011;70786;48.272;14.200;2023-08-06T07:05:57;3.08;;;2.35;;
81176;SDS011;70786;48.272;14.200;2023-08-06T07:08:25;3.13;;;2.08;;
81176;SDS011;70786;48.272;14.200;2023-08-06T07:10:59;3.20;;;1.90;;
81176;SDS011;70786;48.272;14.200;2023-08-06T07:13:29;3.47;;;2.10;;
81176;SDS011;70786;48.272;14.200;2023-08-06T07:15:56;2.80;;;1.92;;
81176;SDS011;70786;48.272;14.200;2023-08-06T07:18:22;2.63;;;1.92;;
81176;SDS011;70786;48.272;14.200;2023-08-06T07:20:49;3.67;;;2.20;;
81176;SDS011;70786;48.272;14.200;2023-08-06T07:23:15;2.20;;;1.58;;
81176;SDS011;70786;48.272;14.200;2023-08-06T07:25:41;4.03;;;2.03;;
81176;SDS011;70786;48.272;14.200;2023-08-06T07:28:08;2.67;;;1.83;;
81176;SDS011;70786;48.272;14.200;2023-08-06T07:30:38;4.57;;;1.88;;
81176;SDS011;70786;48.272;14.200;2023-08-06T07:33:04;3.33;;;2.10;;
81176;SDS011;70786;48.272;14.200;2023-08-06T07:35:30;3.17;;;1.90;;
81176;SDS011;70786;48.272;14.200;2023-08-06T07:37:56;4.60;;;2.17;;
81176;SDS011;70786;48.272;14.200;2023-08-06T07:40:22;2.80;;;2.08;;
81176;SDS011;70786;48.272;14.200;2023-08-06T07:42:48;3.28;;;2.10;;
81176;SDS011;70786;48.272;14.200;2023-08-06T07:45:14;3.90;;;2.30;;
81176;SDS011;70786;48.272;14.200;2023-08-06T07:47:40;2.55;;;1.83;;
81176;SDS011;70786;48.272;14.200;2023-08-06T07:50:07;2.53;;;1.90;;
81176;SDS011;70786;48.272;14.200;2023-08-06T07:52:33;3.28;;;2.05;;
81176;SDS011;70786;48.272;14.200;2023-08-06T07:54:59;2.95;;;1.85;;
81176;SDS011;70786;48.272;14.200;2023-08-06T07:57:27;2.83;;;2.20;;
81176;SDS011;70786;48.272;14.200;2023-08-06T07:59:53;3.22;;;2.17;;
81176;SDS011;70786;48.272;14.200;2023-08-06T08:02:19;3.03;;;2.10;;
81176;SDS011;70786;48.272;14.200;2023-08-06T08:04:45;2.35;;;1.88;;
81176;SDS011;70786;48.272;14.200;2023-08-06T08:07:13;2.80;;;1.95;;
81176;SDS011;70786;48.272;14.200;2023-08-06T08:09:39;2.33;;;1.70;;
81176;SDS011;70786;48.272;14.200;2023-08-06T08:12:05;3.20;;;1.70;;
81176;SDS011;70786;48.272;14.200;2023-08-06T08:14:31;2.47;;;1.75;;
81176;SDS011;70786;48.272;14.200;2023-08-06T08:17:03;3.70;;;1.42;;
81176;SDS011;70786;48.272;14.200;2023-08-06T08:19:31;3.17;;;1.67;;
81176;SDS011;70786;48.272;14.200;2023-08-06T08:22:00;2.50;;;1.50;;
81176;SDS011;70786;48.272;14.200;2023-08-06T08:24:26;2.53;;;1.73;;
81176;SDS011;70786;48.272;14.200;2023-08-06T08:26:52;1.95;;;1.30;;
81176;SDS011;70786;48.272;14.200;2023-08-06T08:29:19;2.03;;;1.40;;
81176;SDS011;70786;48.272;14.200;2023-08-06T08:31:45;2.75;;;1.45;;
81176;SDS011;70786;48.272;14.200;2023-08-06T08:34:11;1.73;;;1.23;;
81176;SDS011;70786;48.272;14.200;2023-08-06T08:36:38;1.75;;;1.40;;
81176;SDS011;70786;48.272;14.200;2023-08-06T08:39:04;2.53;;;1.45;;
81176;SDS011;70786;48.272;14.200;2023-08-06T08:41:30;2.13;;;1.50;;
81176;SDS011;70786;48.272;14.200;2023-08-06T08:43:58;1.33;;;1.00;;
81176;SDS011;70786;48.272;14.200;2023-08-06T08:46:26;3.50;;;1.90;;
81176;SDS011;70786;48.272;14.200;2023-08-06T08:48:53;2.67;;;1.60;;
81176;SDS011;70786;48.272;14.200;2023-08-06T08:51:20;2.35;;;1.63;;
81176;SDS011;70786;48.272;14.200;2023-08-06T08:53:46;3.17;;;1.70;;
81176;SDS011;70786;48.272;14.200;2023-08-06T08:56:15;2.22;;;1.50;;
81176;SDS011;70786;48.272;14.200;2023-08-06T08:58:42;4.13;;;1.52;;
81176;SDS011;70786;48.272;14.200;2023-08-06T09:01:07;3.00;;;1.88;;
81176;SDS011;70786;48.272;14.200;2023-08-06T09:03:36;2.10;;;1.58;;
81176;SDS011;70786;48.272;14.200;2023-08-06T09:06:02;2.88;;;1.33;;
81176;SDS011;70786;48.272;14.200;2023-08-06T09:08:32;2.80;;;1.70;;
81176;SDS011;70786;48.272;14.200;2023-08-06T09:11:02;2.92;;;1.85;;
81176;SDS011;70786;48.272;14.200;2023-08-06T09:13:30;2.30;;;1.65;;
81176;SDS011;70786;48.272;14.200;2023-08-06T09:15:56;2.53;;;1.63;;
81176;SDS011;70786;48.272;14.200;2023-08-06T09:18:31;3.40;;;1.92;;
81176;SDS011;70786;48.272;14.200;2023-08-06T09:20:57;2.53;;;1.75;;
81176;SDS011;70786;48.272;14.200;2023-08-06T09:23:27;3.20;;;2.03;;
81176;SDS011;70786;48.272;14.200;2023-08-06T09:25:59;2.83;;;1.92;;
81176;SDS011;70786;48.272;14.200;2023-08-06T09:28:36;2.47;;;1.88;;
81176;SDS011;70786;48.272;14.200;2023-08-06T09:31:07;3.47;;;2.05;;
81176;SDS011;70786;48.272;14.200;2023-08-06T09:33:35;3.63;;;1.85;;
81176;SDS011;70786;48.272;14.200;2023-08-06T09:36:11;3.20;;;2.00;;
81176;SDS011;70786;48.272;14.200;2023-08-06T09:38:37;2.63;;;1.63;;
81176;SDS011;70786;48.272;14.200;2023-08-06T09:41:05;2.55;;;1.63;;
81176;SDS011;70786;48.272;14.200;2023-08-06T09:43:42;2.72;;;1.88;;
81176;SDS011;70786;48.272;14.200;2023-08-06T09:46:12;3.60;;;1.80;;
81176;SDS011;70786;48.272;14.200;2023-08-06T09:48:39;4.50;;;1.70;;
81176;SDS011;70786;48.272;14.200;2023-08-06T09:51:07;3.20;;;1.88;;
81176;SDS011;70786;48.272;14.200;2023-08-06T09:53:34;2.10;;;1.25;;
81176;SDS011;70786;48.272;14.200;2023-08-06T09:56:01;1.98;;;1.10;;
81176;SDS011;70786;48.272;14.200;2023-08-06T09:58:27;1.90;;;1.05;;
81176;SDS011;70786;48.272;14.200;2023-08-06T10:00:56;2.75;;;1.17;;
81176;SDS011;70786;48.272;14.200;2023-08-06T10:03:23;1.90;;;1.08;;
81176;SDS011;70786;48.272;14.200;2023-08-06T10:05:50;3.97;;;1.40;;
81176;SDS011;70786;48.272;14.200;2023-08-06T10:08:16;2.40;;;1.30;;
81176;SDS011;70786;48.272;14.200;2023-08-06T10:10:42;1.85;;;1.13;;
81176;SDS011;70786;48.272;14.200;2023-08-06T10:13:10;3.80;;;1.15;;
81176;SDS011;70786;48.272;14.200;2023-08-06T10:15:38;2.17;;;1.00;;
81176;SDS011;70786;48.272;14.200;2023-08-06T10:18:05;3.83;;;1.58;;
81176;SDS011;70786;48.272;14.200;2023-08-06T10:20:33;1.35;;;0.98;;
81176;SDS011;70786;48.272;14.200;2023-08-06T10:23:02;1.73;;;1.13;;
81176;SDS011;70786;48.272;14.200;2023-08-06T10:25:30;2.08;;;1.23;;
81176;SDS011;70786;48.272;14.200;2023-08-06T10:27:58;3.13;;;1.33;;
81176;SDS011;70786;48.272;14.200;2023-08-06T10:30:31;2.47;;;1.10;;
81176;SDS011;70786;48.272;14.200;2023-08-06T10:32:58;1.77;;;0.88;;
81176;SDS011;70786;48.272;14.200;2023-08-06T10:38:04;1.77;;;1.00;;
81176;SDS011;70786;48.272;14.200;2023-08-06T10:40:31;5.38;;;0.90;;
81176;SDS011;70786;48.272;14.200;2023-08-06T10:42:58;1.67;;;0.85;;
81176;SDS011;70786;48.272;14.200;2023-08-06T10:45:25;1.10;;;0.80;;
81176;SDS011;70786;48.272;14.200;2023-08-06T10:47:54;1.60;;;0.90;;
81176;SDS011;70786;48.272;14.200;2023-08-06T10:50:22;2.50;;;0.85;;
81176;SDS011;70786;48.272;14.200;2023-08-06T10:52:49;1.25;;;0.68;;
81176;SDS011;70786;48.272;14.200;2023-08-06T10:55:27;1.35;;;0.88;;
81176;SDS011;70786;48.272;14.200;2023-08-06T10:57:55;1.40;;;0.73;;
81176;SDS011;70786;48.272;14.200;2023-08-06T11:00:22;1.58;;;0.88;;
81176;SDS011;70786;48.272;14.200;2023-08-06T11:02:51;1.60;;;0.80;;
81176;SDS011;70786;48.272;14.200;2023-08-06T11:05:18;1.30;;;0.77;;
81176;SDS011;70786;48.272;14.200;2023-08-06T11:07:44;1.88;;;0.60;;
81176;SDS011;70786;48.272;14.200;2023-08-06T11:10:11;1.70;;;0.90;;
81176;SDS011;70786;48.272;14.200;2023-08-06T11:12:38;1.92;;;0.65;;
81176;SDS011;70786;48.272;14.200;2023-08-06T11:15:05;1.77;;;0.88;;
81176;SDS011;70786;48.272;14.200;2023-08-06T11:17:32;1.40;;;0.60;;
81176;SDS011;70786;48.272;14.200;2023-08-06T11:20:03;0.90;;;0.60;;
81176;SDS011;70786;48.272;14.200;2023-08-06T11:22:29;0.98;;;0.57;;
81176;SDS011;70786;48.272;14.200;2023-08-06T11:24:56;0.60;;;0.40;;
81176;SDS011;70786;48.272;14.200;2023-08-06T11:27:22;1.15;;;0.60;;
81176;SDS011;70786;48.272;14.200;2023-08-06T11:29:48;1.45;;;0.65;;
81176;SDS011;70786;48.272;14.200;2023-08-06T11:32:14;1.92;;;0.30;;
81176;SDS011;70786;48.272;14.200;2023-08-06T11:34:40;0.60;;;0.40;;
81176;SDS011;70786;48.272;14.200;2023-08-06T11:37:07;0.47;;;0.30;;
81176;SDS011;70786;48.272;14.200;2023-08-06T11:39:33;2.03;;;0.40;;
81176;SDS011;70786;48.272;14.200;2023-08-06T11:42:02;1.40;;;0.40;;
81176;SDS011;70786;48.272;14.200;2023-08-06T11:44:30;1.02;;;0.30;;
81176;SDS011;70786;48.272;14.200;2023-08-06T11:46:58;1.08;;;0.40;;
81176;SDS011;70786;48.272;14.200;2023-08-06T11:57:33;2.95;;;1.35;;
81176;SDS011;70786;48.272;14.200;2023-08-06T12:02:33;1.63;;;0.35;;
81176;SDS011;70786;48.272;14.200;2023-08-06T12:05:10;1.60;;;0.30;;
81176;SDS011;70786;48.272;14.200;2023-08-06T12:07:41;0.70;;;0.32;;
81176;SDS011;70786;48.272;14.200;2023-08-06T12:10:09;0.95;;;0.35;;
81176;SDS011;70786;48.272;14.200;2023-08-06T12:12:36;0.35;;;0.30;;
81176;SDS011;70786;48.272;14.200;2023-08-06T12:15:03;0.38;;;0.30;;
81176;SDS011;70786;48.272;14.200;2023-08-06T12:17:29;0.98;;;0.30;;
81176;SDS011;70786;48.272;14.200;2023-08-06T12:19:55;0.30;;;0.20;;
81176;SDS011;70786;48.272;14.200;2023-08-06T12:22:21;0.40;;;0.20;;
81176;SDS011;70786;48.272;14.200;2023-08-06T12:24:47;1.00;;;0.40;;
81176;SDS011;70786;48.272;14.200;2023-08-06T12:27:13;0.90;;;0.50;;
81176;SDS011;70786;48.272;14.200;2023-08-06T12:29:42;2.47;;;0.65;;
81176;SDS011;70786;48.272;14.200;2023-08-06T12:32:09;2.38;;;0.35;;
81176;SDS011;70786;48.272;14.200;2023-08-06T12:34:37;1.45;;;0.40;;
81176;SDS011;70786;48.272;14.200;2023-08-06T12:37:07;1.98;;;0.38;;
81176;SDS011;70786;48.272;14.200;2023-08-06T12:39:34;0.57;;;0.40;;
81176;SDS011;70786;48.272;14.200;2023-08-06T12:42:03;1.15;;;0.50;;
81176;SDS011;70786;48.272;14.200;2023-08-06T12:44:31;0.95;;;0.38;;
81176;SDS011;70786;48.272;14.200;2023-08-06T12:46:57;1.77;;;0.60;;
81176;SDS011;70786;48.272;14.200;2023-08-06T12:49:24;1.58;;;0.60;;
81176;SDS011;70786;48.272;14.200;2023-08-06T12:51:51;0.52;;;0.30;;
81176;SDS011;70786;48.272;14.200;2023-08-06T12:54:19;0.57;;;0.22;;
81176;SDS011;70786;48.272;14.200;2023-08-06T12:56:46;0.43;;;0.13;;
81176;SDS011;70786;48.272;14.200;2023-08-06T12:59:13;0.95;;;0.17;;
81176;SDS011;70786;48.272;14.200;2023-08-06T13:01:41;0.80;;;0.20;;
81176;SDS011;70786;48.272;14.200;2023-08-06T13:04:07;1.17;;;0.20;;
81176;SDS011;70786;48.272;14.200;2023-08-06T13:06:33;0.20;;;0.10;;
81176;SDS011;70786;48.272;14.200;2023-08-06T13:09:03;0.38;;;0.10;;
81176;SDS011;70786;48.272;14.200;2023-08-06T13:11:30;0.47;;;0.20;;
81176;SDS011;70786;48.272;14.200;2023-08-06T13:14:03;0.30;;;0.20;;
81176;SDS011;70786;48.272;14.200;2023-08-06T13:16:38;0.43;;;0.20;;
81176;SDS011;70786;48.272;14.200;2023-08-06T13:19:05;0.32;;;0.17;;
81176;SDS011;70786;48.272;14.200;2023-08-06T13:21:32;0.20;;;0.17;;
81176;SDS011;70786;48.272;14.200;2023-08-06T13:24:00;0.40;;;0.20;;
81176;SDS011;70786;48.272;14.200;2023-08-06T13:26:27;0.80;;;0.28;;
81176;SDS011;70786;48.272;14.200;2023-08-06T13:28:54;0.88;;;0.30;;
81176;SDS011;70786;48.272;14.200;2023-08-06T13:31:21;0.30;;;0.25;;
81176;SDS011;70786;48.272;14.200;2023-08-06T13:33:47;1.00;;;0.30;;
81176;SDS011;70786;48.272;14.200;2023-08-06T13:36:13;0.40;;;0.20;;
81176;SDS011;70786;48.272;14.200;2023-08-06T13:38:39;6.18;;;0.30;;
81176;SDS011;70786;48.272;14.200;2023-08-06T13:41:05;0.10;;;0.10;;
81176;SDS011;70786;48.272;14.200;2023-08-06T13:43:31;0.38;;;0.20;;
81176;SDS011;70786;48.272;14.200;2023-08-06T13:45:57;1.30;;;0.30;;
81176;SDS011;70786;48.272;14.200;2023-08-06T13:48:23;0.35;;;0.25;;
81176;SDS011;70786;48.272;14.200;2023-08-06T13:50:49;0.60;;;0.20;;
81176;SDS011;70786;48.272;14.200;2023-08-06T13:53:15;0.32;;;0.20;;
81176;SDS011;70786;48.272;14.200;2023-08-06T13:55:42;0.32;;;0.30;;
81176;SDS011;70786;48.272;14.200;2023-08-06T13:58:07;0.20;;;0.20;;
81176;SDS011;70786;48.272;14.200;2023-08-06T14:00:35;0.98;;;0.28;;
81176;SDS011;70786;48.272;14.200;2023-08-06T14:03:01;0.98;;;0.20;;
81176;SDS011;70786;48.272;14.200;2023-08-06T14:05:27;0.85;;;0.38;;
81176;SDS011;70786;48.272;14.200;2023-08-06T14:07:53;0.77;;;0.20;;
81176;SDS011;70786;48.272;14.200;2023-08-06T14:10:19;0.30;;;0.20;;
81176;SDS011;70786;48.272;14.200;2023-08-06T14:12:45;0.75;;;0.60;;
81176;SDS011;70786;48.272;14.200;2023-08-06T14:15:11;0.15;;;0.15;;
81176;SDS011;70786;48.272;14.200;2023-08-06T14:17:37;0.00;;;0.00;;
81176;SDS011;70786;48.272;14.200;2023-08-06T14:20:04;0.10;;;0.10;;
81176;SDS011;70786;48.272;14.200;2023-08-06T14:22:32;0.30;;;0.20;;
81176;SDS011;70786;48.272;14.200;2023-08-06T14:24:58;1.02;;;0.17;;
81176;SDS011;70786;48.272;14.200;2023-08-06T14:27:24;2.08;;;0.22;;
81176;SDS011;70786;48.272;14.200;2023-08-06T14:29:50;0.45;;;0.10;;
81176;SDS011;70786;48.272;14.200;2023-08-06T14:32:17;0.38;;;0.20;;
81176;SDS011;70786;48.272;14.200;2023-08-06T14:34:46;0.17;;;0.10;;
81176;SDS011;70786;48.272;14.200;2023-08-06T14:37:12;0.20;;;0.10;;
81176;SDS011;70786;48.272;14.200;2023-08-06T14:39:38;0.10;;;0.10;;
81176;SDS011;70786;48.272;14.200;2023-08-06T14:42:04;0.10;;;0.10;;
81176;SDS011;70786;48.272;14.200;2023-08-06T14:44:31;0.20;;;0.20;;
81176;SDS011;70786;48.272;14.200;2023-08-06T14:46:57;0.25;;;0.10;;
81176;SDS011;70786;48.272;14.200;2023-08-06T14:49:23;0.13;;;0.10;;
81176;SDS011;70786;48.272;14.200;2023-08-06T14:51:50;0.30;;;0.20;;
81176;SDS011;70786;48.272;14.200;2023-08-06T14:54:16;0.15;;;0.10;;
81176;SDS011;70786;48.272;14.200;2023-08-06T14:56:42;1.90;;;0.10;;